Terminal Aerodrome Forecast
Issued by NWS Duluth, MN

Home | Current Version | Previous Version | Text Only | Print | Product List | Glossary On
Versions: 1 2 3 4 5 6 7 8 9 10 11 12 13 14 15 16 17 18 19 20 21 22 23 24 25 26 27 28 29 30
000
FTUS43 KDLH 220500
TAFDLH
TAF
KDLH 220520Z 2206/2306 27003KT P6SM SKC
      TEMPO 2209/2213 6SM BR SCT006
     FM221500 26009KT P6SM FEW035
     FM230000 24005KT P6SM SKC=

USA.gov is the U.S. government's official web portal to all federal, state and local government web resources and services.